Time;durP1;ratioP1;P1;durP2;ratioP2;P2;SDS_P1;SDS_P2;PMS_P1;PMS_P2;Temp;Humidity;BMP_temperature;BMP_pressure;BME280_temperature;BME280_humidity;BME280_pressure;Samples;Min_cycle;Max_cycle;Signal;HPM_P1;HPM_P2
2024/01/14 00:02:10;;;;;;;58.80;24.77;;;-3.30;99.90;;;;;;4997818;28;20234;-61
2024/01/14 00:04:39;;;;;;;51.17;22.37;;;-3.50;99.90;;;;;;4990472;28;20263;-62
2024/01/14 00:07:07;;;;;;;45.23;21.20;;;-3.50;99.90;;;;;;5000667;28;20202;-61
2024/01/14 00:09:34;;;;;;;47.07;22.70;;;-3.60;99.90;;;;;;4990263;28;20247;-61
2024/01/14 00:12:01;;;;;;;57.37;24.63;;;-3.50;99.90;;;;;;5002622;28;20223;-61
2024/01/14 00:14:28;;;;;;;44.47;19.93;;;-3.50;99.90;;;;;;5005904;28;20281;-61
2024/01/14 00:16:54;;;;;;;45.53;22.17;;;-3.70;99.90;;;;;;4993039;28;20558;-61
2024/01/14 00:19:21;;;;;;;49.30;23.07;;;-3.70;99.90;;;;;;4998461;28;20260;-61
2024/01/14 00:21:50;;;;;;;50.50;23.33;;;-3.70;99.90;;;;;;5002350;28;20219;-61
2024/01/14 00:24:17;;;;;;;60.50;23.20;;;-3.60;99.90;;;;;;5011683;28;20228;-61
2024/01/14 00:26:44;;;;;;;58.97;24.17;;;-3.60;99.90;;;;;;5012143;28;20204;-61
2024/01/14 00:29:10;;;;;;;48.37;22.73;;;-3.60;99.90;;;;;;5000098;28;20208;-61
2024/01/14 00:31:37;;;;;;;50.33;23.23;;;-3.60;99.90;;;;;;4999785;28;20578;-61
2024/01/14 00:34:05;;;;;;;48.97;22.20;;;-3.70;99.90;;;;;;4992882;28;20247;-61
2024/01/14 00:36:32;;;;;;;48.97;22.53;;;-3.70;99.90;;;;;;4994545;28;20288;-61
2024/01/14 00:39:00;;;;;;;50.20;23.80;;;-3.80;99.90;;;;;;4994309;28;20200;-61
2024/01/14 00:41:27;;;;;;;52.97;23.20;;;-3.70;99.90;;;;;;5002829;28;20780;-61
2024/01/14 00:43:54;;;;;;;49.53;21.90;;;-3.70;99.90;;;;;;4999536;28;20292;-61
2024/01/14 00:46:21;;;;;;;64.87;24.73;;;-3.60;99.90;;;;;;5007009;28;20203;-61
2024/01/14 00:48:47;;;;;;;45.40;22.73;;;-3.70;99.90;;;;;;5011981;28;20200;-61
2024/01/14 00:51:14;;;;;;;47.10;22.07;;;-3.50;99.90;;;;;;5010887;28;20530;-61
2024/01/14 00:53:41;;;;;;;57.43;24.87;;;-3.50;99.90;;;;;;5001462;28;20201;-61
2024/01/14 00:56:11;;;;;;;54.90;24.40;;;-3.50;99.90;;;;;;5004803;28;20271;-61
2024/01/14 00:58:39;;;;;;;60.60;24.20;;;-3.40;99.90;;;;;;5010991;28;20480;-61
2024/01/14 01:01:06;;;;;;;60.97;24.07;;;-3.30;99.90;;;;;;4991124;28;20229;-61
2024/01/14 01:03:33;;;;;;;53.33;21.97;;;-3.20;99.90;;;;;;4999413;28;20222;-61
2024/01/14 01:06:00;;;;;;;60.33;25.77;;;-3.40;99.90;;;;;;4995798;28;20223;-61
2024/01/14 01:08:27;;;;;;;64.67;24.63;;;-3.40;99.90;;;;;;5010995;28;20208;-61
2024/01/14 01:10:54;;;;;;;65.43;25.80;;;-3.20;99.90;;;;;;4995849;28;20224;-61
2024/01/14 01:13:22;;;;;;;53.90;22.50;;;-3.30;99.90;;;;;;4998913;28;20213;-61
2024/01/14 01:15:49;;;;;;;60.27;23.73;;;-3.10;99.90;;;;;;5007709;28;20197;-61
2024/01/14 01:18:16;;;;;;;46.10;22.53;;;-3.20;99.90;;;;;;5015847;28;20199;-61
2024/01/14 01:20:43;;;;;;;57.00;23.43;;;-3.30;99.90;;;;;;5014804;28;20206;-61
2024/01/14 01:23:10;;;;;;;48.63;21.37;;;-3.10;99.90;;;;;;5011164;28;20255;-63
2024/01/14 01:25:37;;;;;;;50.83;22.10;;;-3.10;99.90;;;;;;5007185;28;20216;-61
2024/01/14 01:28:05;;;;;;;60.20;24.47;;;-3.30;99.90;;;;;;4998346;28;20502;-61
2024/01/14 01:30:33;;;;;;;59.77;24.37;;;-3.20;99.90;;;;;;4994773;28;20627;-61
2024/01/14 01:33:00;;;;;;;57.23;23.73;;;-3.30;99.90;;;;;;4998144;28;20223;-61
2024/01/14 01:35:27;;;;;;;62.10;23.17;;;-3.30;99.90;;;;;;5003221;28;20193;-61
2024/01/14 01:37:54;;;;;;;51.27;22.53;;;-3.10;99.90;;;;;;4995302;28;20255;-61
2024/01/14 01:40:21;;;;;;;55.50;23.23;;;-3.20;99.90;;;;;;4995855;28;20209;-61
2024/01/14 01:42:49;;;;;;;48.10;22.10;;;-3.30;99.90;;;;;;4995734;28;20523;-61
2024/01/14 01:45:16;;;;;;;52.93;21.93;;;-3.40;99.90;;;;;;4999918;28;20221;-61
2024/01/14 01:47:45;;;;;;;52.00;21.20;;;-3.30;99.90;;;;;;5007311;28;20246;-61
2024/01/14 01:50:12;;;;;;;55.93;21.93;;;;;;;;;;5014900;28;20202;-61
2024/01/14 01:52:41;;;;;;;41.50;19.87;;;-3.40;99.90;;;;;;5014710;28;20224;-61
2024/01/14 01:55:10;;;;;;;48.13;21.50;;;-3.40;99.90;;;;;;5016473;28;20735;-62
2024/01/14 01:57:38;;;;;;;53.67;21.63;;;-3.40;99.90;;;;;;5006202;28;20202;-61
2024/01/14 02:00:08;;;;;;;46.90;19.93;;;-3.40;99.90;;;;;;4994178;28;20520;-62
2024/01/14 02:02:36;;;;;;;50.93;22.87;;;-3.40;99.90;;;;;;4992916;28;20306;-61
2024/01/14 02:05:06;;;;;;;54.47;22.20;;;-3.50;99.90;;;;;;4990901;28;20320;-61
2024/01/14 02:07:34;;;;;;;54.07;21.97;;;-3.30;99.90;;;;;;5000423;28;20275;-61
2024/01/14 02:10:01;;;;;;;51.97;22.17;;;-3.30;99.90;;;;;;5000289;28;20199;-61
2024/01/14 02:12:28;;;;;;;49.60;19.83;;;-3.30;99.90;;;;;;5003816;28;21008;-61
2024/01/14 02:14:55;;;;;;;48.67;21.27;;;-3.50;99.90;;;;;;5003511;28;20511;-61
2024/01/14 02:17:22;;;;;;;49.30;21.63;;;-3.40;99.90;;;;;;5000376;28;20464;-61
2024/01/14 02:19:49;;;;;;;45.20;22.07;;;-3.60;99.90;;;;;;5002625;28;20205;-62
2024/01/14 02:22:23;;;;;;;55.03;22.63;;;-3.30;99.90;;;;;;5001212;28;20704;-61
2024/01/14 02:24:53;;;;;;;40.23;20.37;;;-3.40;99.90;;;;;;5012406;28;20487;-61
2024/01/14 02:27:20;;;;;;;60.50;21.73;;;-3.30;99.90;;;;;;5014545;28;20236;-61
2024/01/14 02:29:49;;;;;;;53.97;22.57;;;-3.40;99.90;;;;;;5004456;28;20289;-61
2024/01/14 02:32:16;;;;;;;58.47;22.03;;;-3.20;99.90;;;;;;4992287;28;20603;-61
2024/01/14 02:34:42;;;;;;;56.10;23.13;;;-3.30;99.90;;;;;;5003651;28;20260;-61
2024/01/14 02:37:13;;;;;;;41.87;19.53;;;-3.20;99.90;;;;;;4996113;28;20758;-61
2024/01/14 02:39:40;;;;;;;48.57;21.13;;;-3.10;99.90;;;;;;4994584;28;20672;-61
2024/01/14 02:42:08;;;;;;;54.77;21.90;;;-3.40;99.90;;;;;;4993609;28;20230;-61
2024/01/14 02:44:35;;;;;;;53.37;20.83;;;-3.20;99.90;;;;;;4992571;28;20592;-61
2024/01/14 02:47:05;;;;;;;62.97;23.33;;;-3.30;99.90;;;;;;5001895;28;20193;-61
2024/01/14 02:49:32;;;;;;;47.60;20.77;;;-3.20;99.90;;;;;;5010383;28;20207;-61
2024/01/14 02:51:59;;;;;;;48.63;22.33;;;-3.20;99.90;;;;;;5013069;28;20652;-61
2024/01/14 02:54:26;;;;;;;43.57;18.50;;;-3.10;99.90;;;;;;4999738;28;20684;-61
2024/01/14 02:56:53;;;;;;;52.13;21.33;;;-3.10;99.90;;;;;;4992487;28;20460;-61
2024/01/14 02:59:21;;;;;;;45.83;20.63;;;-3.10;99.90;;;;;;5007598;28;20930;-61
2024/01/14 03:01:48;;;;;;;53.40;21.57;;;-3.10;99.90;;;;;;4994574;28;20515;-61
2024/01/14 03:04:15;;;;;;;79.03;25.83;;;-3.20;99.90;;;;;;4994246;28;20208;-61
2024/01/14 03:06:42;;;;;;;52.83;21.80;;;-3.40;99.90;;;;;;4993446;28;21002;-61
2024/01/14 03:09:09;;;;;;;49.43;22.73;;;-3.50;99.90;;;;;;4993379;28;20447;-61
2024/01/14 03:11:36;;;;;;;46.77;20.80;;;-3.20;99.90;;;;;;5000602;28;20535;-61
2024/01/14 03:14:04;;;;;;;42.20;20.27;;;-3.30;99.90;;;;;;4993830;28;20259;-61
2024/01/14 03:16:32;;;;;;;48.33;20.43;;;-3.20;99.90;;;;;;4994060;28;20206;-61
2024/01/14 03:18:59;;;;;;;50.73;20.73;;;-3.10;99.90;;;;;;4992407;28;20209;-61
2024/01/14 03:21:26;;;;;;;63.67;22.80;;;-3.30;99.90;;;;;;4992390;28;20475;-61
2024/01/14 03:23:53;;;;;;;47.50;20.90;;;-3.20;99.90;;;;;;5001186;28;20277;-61
2024/01/14 03:26:20;;;;;;;49.17;20.00;;;-3.30;99.90;;;;;;5003884;28;20537;-61
2024/01/14 03:28:47;;;;;;;63.93;23.03;;;-3.40;99.90;;;;;;4993243;28;20196;-61
2024/01/14 03:31:15;;;;;;;43.30;21.10;;;-3.40;99.90;;;;;;4993003;28;20270;-61
2024/01/14 03:33:44;;;;;;;44.40;19.80;;;-3.30;99.90;;;;;;4993428;28;20681;-61
2024/01/14 03:36:14;;;;;;;48.13;21.10;;;-3.40;99.90;;;;;;4999593;28;20457;-61
2024/01/14 03:38:41;;;;;;;53.77;22.37;;;-3.40;99.90;;;;;;5008968;28;20454;-61
2024/01/14 03:41:08;;;;;;;44.87;20.93;;;-3.30;99.90;;;;;;5012045;28;20465;-61
2024/01/14 03:43:35;;;;;;;52.00;21.10;;;-3.40;99.90;;;;;;4993101;28;20448;-61
2024/01/14 03:46:02;;;;;;;50.50;22.73;;;-3.30;99.90;;;;;;5000262;28;20276;-61
2024/01/14 03:48:29;;;;;;;48.80;20.63;;;-3.20;99.90;;;;;;5001833;28;20279;-61
2024/01/14 03:50:57;;;;;;;50.60;22.17;;;-3.40;99.90;;;;;;4992032;28;20459;-61
2024/01/14 03:53:24;;;;;;;54.70;22.83;;;-3.30;99.90;;;;;;4993022;28;20925;-61
2024/01/14 03:55:52;;;;;;;50.20;23.03;;;-3.20;99.90;;;;;;4999136;28;20234;-61
2024/01/14 03:58:19;;;;;;;54.40;23.13;;;-3.30;99.90;;;;;;4998939;28;20499;-61
2024/01/14 04:00:46;;;;;;;72.53;24.37;;;-3.20;99.90;;;;;;4991854;28;20215;-61
2024/01/14 04:03:13;;;;;;;61.90;24.67;;;-3.30;99.90;;;;;;4993026;28;20210;-61
2024/01/14 04:05:40;;;;;;;51.93;23.70;;;-3.40;99.90;;;;;;4992445;28;20284;-61
2024/01/14 04:08:08;;;;;;;56.63;24.60;;;-3.30;99.90;;;;;;4999102;28;20221;-62
2024/01/14 04:10:35;;;;;;;51.70;21.77;;;-3.10;99.90;;;;;;5007768;28;20615;-61
2024/01/14 04:13:02;;;;;;;55.17;22.13;;;-3.50;99.90;;;;;;4996204;28;20264;-61
2024/01/14 04:15:29;;;;;;;50.33;24.67;;;-3.40;99.90;;;;;;4992777;28;20280;-61
2024/01/14 04:17:56;;;;;;;49.50;21.23;;;-3.20;99.90;;;;;;4992759;28;20258;-61
2024/01/14 04:20:23;;;;;;;51.17;22.90;;;-3.40;99.90;;;;;;4996402;28;20458;-61
2024/01/14 04:22:50;;;;;;;51.67;21.20;;;-3.20;99.90;;;;;;4992073;28;20251;-61
2024/01/14 04:25:18;;;;;;;50.07;22.50;;;-3.40;99.90;;;;;;4992820;28;20278;-61
2024/01/14 04:27:45;;;;;;;55.53;23.80;;;-3.40;99.90;;;;;;4992349;28;20248;-61
2024/01/14 04:30:12;;;;;;;51.77;22.93;;;-3.30;99.90;;;;;;4991732;28;20237;-61
2024/01/14 04:32:39;;;;;;;49.57;21.27;;;-3.10;99.90;;;;;;4990484;28;20225;-61
2024/01/14 04:35:06;;;;;;;58.63;21.30;;;-3.30;99.90;;;;;;5003765;28;20497;-62
2024/01/14 04:37:33;;;;;;;79.90;24.20;;;-3.20;99.90;;;;;;5009085;28;20446;-61
2024/01/14 04:40:00;;;;;;;78.80;22.30;;;-3.30;99.90;;;;;;4991665;28;20212;-62
2024/01/14 04:42:28;;;;;;;85.33;23.23;;;-3.40;99.90;;;;;;4997906;28;20284;-61
2024/01/14 04:44:55;;;;;;;47.07;19.07;;;-3.60;99.90;;;;;;4993161;28;20246;-61
2024/01/14 04:47:22;;;;;;;58.80;20.17;;;-3.40;99.90;;;;;;5000970;28;20271;-61
2024/01/14 04:49:49;;;;;;;64.30;19.80;;;-3.50;99.90;;;;;;4992494;28;20205;-61
2024/01/14 04:52:16;;;;;;;50.10;20.13;;;-3.60;99.90;;;;;;4991518;28;20219;-61
2024/01/14 04:54:43;;;;;;;75.07;21.10;;;-3.70;99.90;;;;;;4993013;28;20208;-61
2024/01/14 04:57:10;;;;;;;44.13;19.70;;;-3.60;99.90;;;;;;4990441;28;20258;-61
2024/01/14 04:59:38;;;;;;;94.53;21.53;;;-3.80;99.90;;;;;;5007827;28;20284;-61
2024/01/14 05:02:08;;;;;;;41.20;19.57;;;-3.60;99.90;;;;;;4992051;28;20233;-61
2024/01/14 05:04:35;;;;;;;45.50;19.93;;;-3.70;99.90;;;;;;4991852;28;20286;-61
2024/01/14 05:07:02;;;;;;;50.50;19.90;;;-3.70;99.90;;;;;;4985516;28;20975;-60
2024/01/14 05:09:28;;;;;;;47.43;18.77;;;-3.70;99.90;;;;;;4992054;28;20439;-60
2024/01/14 05:11:55;;;;;;;49.07;20.30;;;-3.60;99.90;;;;;;4991368;28;21163;-60
2024/01/14 05:14:22;;;;;;;50.50;19.43;;;-3.50;99.90;;;;;;4992037;28;20206;-60
2024/01/14 05:16:51;;;;;;;112.73;22.57;;;-3.80;99.90;;;;;;4992039;28;20492;-59
2024/01/14 05:19:17;;;;;;;43.97;19.33;;;-3.90;99.90;;;;;;4996806;28;20204;-60
2024/01/14 05:21:44;;;;;;;43.97;19.77;;;-3.80;99.90;;;;;;4990040;28;20525;-60
2024/01/14 05:24:11;;;;;;;78.37;22.67;;;-3.90;99.90;;;;;;4991923;28;20511;-60
2024/01/14 05:26:40;;;;;;;40.17;18.23;;;-3.80;99.90;;;;;;4995114;28;20483;-59
2024/01/14 05:29:07;;;;;;;43.23;20.93;;;-3.90;99.90;;;;;;4991985;28;20765;-59
2024/01/14 05:31:36;;;;;;;40.63;19.03;;;-3.80;99.90;;;;;;4991434;28;20491;-59
2024/01/14 05:34:04;;;;;;;62.97;20.30;;;-3.80;99.90;;;;;;4992062;28;20204;-59
2024/01/14 05:36:32;;;;;;;41.30;18.77;;;;;;;;;;4991416;28;20931;-59
2024/01/14 05:38:59;;;;;;;54.47;21.07;;;-3.90;99.90;;;;;;4990421;28;20455;-59
2024/01/14 05:41:26;;;;;;;43.67;19.77;;;-3.80;99.90;;;;;;4991155;28;20876;-60
2024/01/14 05:43:52;;;;;;;40.87;19.77;;;-3.70;99.90;;;;;;4991656;28;20460;-59
2024/01/14 05:46:19;;;;;;;47.93;21.70;;;-3.80;99.90;;;;;;4991896;28;20481;-59
2024/01/14 05:48:46;;;;;;;47.43;18.47;;;-3.80;99.90;;;;;;4991719;28;21010;-59
2024/01/14 05:51:15;;;;;;;47.03;21.53;;;-3.80;99.90;;;;;;4990917;28;20488;-59
2024/01/14 05:53:42;;;;;;;38.43;19.10;;;-3.90;99.90;;;;;;4991335;28;20987;-59
2024/01/14 05:56:09;;;;;;;35.70;18.73;;;-3.90;99.90;;;;;;4991581;28;20457;-60
2024/01/14 05:58:35;;;;;;;46.70;19.70;;;-3.80;99.90;;;;;;4999406;28;20494;-60
2024/01/14 06:01:03;;;;;;;47.07;19.80;;;-3.80;99.90;;;;;;4993437;28;20562;-59
2024/01/14 06:03:30;;;;;;;45.23;19.50;;;-3.70;99.90;;;;;;4995500;28;20450;-60
2024/01/14 06:05:57;;;;;;;41.67;18.53;;;-3.70;99.90;;;;;;4995324;28;20480;-59
2024/01/14 06:08:25;;;;;;;42.90;19.57;;;-3.60;99.90;;;;;;4998723;28;20498;-59
2024/01/14 06:10:52;;;;;;;62.50;18.33;;;-3.70;99.90;;;;;;4996541;28;20229;-59
2024/01/14 06:13:19;;;;;;;43.07;18.57;;;-3.70;99.90;;;;;;4995461;28;20200;-59
2024/01/14 06:15:46;;;;;;;44.73;20.47;;;-3.60;99.90;;;;;;4995067;28;20447;-59
2024/01/14 06:18:13;;;;;;;55.47;18.90;;;-3.60;99.90;;;;;;4988078;28;20677;-59
2024/01/14 06:20:40;;;;;;;46.53;18.57;;;-3.60;99.90;;;;;;5004876;28;20518;-59
2024/01/14 06:23:07;;;;;;;35.10;18.80;;;-3.70;99.90;;;;;;4991651;28;20260;-60
2024/01/14 06:25:35;;;;;;;47.33;17.87;;;-3.90;99.90;;;;;;4994347;28;20198;-60
2024/01/14 06:28:03;;;;;;;53.67;21.73;;;-3.70;99.90;;;;;;4995363;28;20200;-59
2024/01/14 06:30:30;;;;;;;42.87;19.60;;;-3.70;99.90;;;;;;4994256;28;20479;-59
2024/01/14 06:32:57;;;;;;;58.83;20.93;;;-3.40;99.90;;;;;;4992293;28;20463;-59
2024/01/14 06:35:24;;;;;;;70.70;21.57;;;-3.50;99.90;;;;;;4994826;28;20945;-59
2024/01/14 06:37:51;;;;;;;51.47;20.23;;;-3.60;99.90;;;;;;4994877;28;20493;-60
2024/01/14 06:40:18;;;;;;;43.27;21.30;;;-3.70;99.90;;;;;;4993119;28;21198;-59
2024/01/14 06:42:47;;;;;;;64.77;23.70;;;-3.40;99.90;;;;;;4994328;28;20460;-60
2024/01/14 06:45:14;;;;;;;61.07;21.67;;;-3.50;99.90;;;;;;4994459;28;20620;-59
2024/01/14 06:47:41;;;;;;;54.97;22.00;;;-3.60;99.90;;;;;;4994616;28;20566;-59
2024/01/14 06:50:09;;;;;;;55.47;20.10;;;-3.60;99.90;;;;;;4994292;28;20507;-59
2024/01/14 06:52:36;;;;;;;62.53;21.83;;;-3.60;99.90;;;;;;4994501;28;20596;-60
2024/01/14 06:55:04;;;;;;;45.03;20.13;;;-3.50;99.90;;;;;;5002408;28;20205;-58
2024/01/14 06:57:31;;;;;;;50.30;21.73;;;-3.70;99.90;;;;;;4994126;28;20604;-59
2024/01/14 07:00:00;;;;;;;47.60;19.03;;;-3.80;99.90;;;;;;5001506;28;20536;-58
2024/01/14 07:02:27;;;;;;;43.10;19.40;;;-3.70;99.90;;;;;;5000212;28;20558;-60
2024/01/14 07:04:54;;;;;;;62.90;22.10;;;-3.70;99.90;;;;;;4996013;28;20863;-59
2024/01/14 07:07:21;;;;;;;50.07;21.10;;;-3.80;99.90;;;;;;5002197;28;20479;-59
2024/01/14 07:09:48;;;;;;;52.80;21.23;;;-3.50;99.90;;;;;;4995140;28;20503;-59
2024/01/14 07:12:15;;;;;;;56.77;22.63;;;-3.60;99.90;;;;;;5000069;28;20467;-59
2024/01/14 07:14:42;;;;;;;48.30;20.13;;;-3.80;99.90;;;;;;4995086;28;20260;-59
2024/01/14 07:17:10;;;;;;;45.70;19.50;;;-3.60;99.90;;;;;;4994176;28;20197;-59
2024/01/14 07:19:37;;;;;;;42.30;19.73;;;-3.60;99.90;;;;;;4993941;28;20446;-59
2024/01/14 07:22:09;;;;;;;49.83;19.07;;;-3.60;99.90;;;;;;4992933;28;20879;-60
2024/01/14 07:24:36;;;;;;;43.60;18.57;;;-3.80;99.90;;;;;;5002068;28;20736;-60
2024/01/14 07:27:04;;;;;;;44.07;18.80;;;-3.60;99.90;;;;;;4993427;28;20481;-59
2024/01/14 07:29:31;;;;;;;51.67;20.87;;;-3.80;99.90;;;;;;4993825;28;20458;-59
2024/01/14 07:31:58;;;;;;;46.40;19.27;;;-3.60;99.90;;;;;;4992805;28;20978;-59
2024/01/14 07:34:26;;;;;;;51.17;23.20;;;-3.80;99.90;;;;;;5002355;28;20198;-59
2024/01/14 07:36:53;;;;;;;68.90;32.00;;;-3.60;99.90;;;;;;4991879;28;20205;-59
2024/01/14 07:39:20;;;;;;;91.77;36.87;;;-3.70;99.90;;;;;;4993696;28;20441;-59
2024/01/14 07:41:47;;;;;;;55.40;21.33;;;-3.70;99.90;;;;;;4991041;28;20606;-59
2024/01/14 07:44:14;;;;;;;53.13;18.70;;;-3.80;99.90;;;;;;4993676;28;20247;-59
2024/01/14 07:46:41;;;;;;;49.50;20.93;;;-3.80;99.90;;;;;;4993868;28;20483;-60
2024/01/14 07:49:08;;;;;;;43.53;18.53;;;-3.80;99.90;;;;;;4993571;28;20444;-59
2024/01/14 07:51:36;;;;;;;37.60;17.03;;;-3.80;99.90;;;;;;4992858;28;20468;-59
2024/01/14 07:54:04;;;;;;;41.67;19.43;;;-3.70;99.90;;;;;;4999518;28;20498;-59
2024/01/14 07:56:30;;;;;;;54.13;20.53;;;-3.80;99.90;;;;;;4994190;28;20547;-60
2024/01/14 07:58:57;;;;;;;48.17;20.13;;;-3.70;99.90;;;;;;4993559;28;20448;-59
2024/01/14 08:01:24;;;;;;;49.63;20.70;;;-3.90;99.90;;;;;;4991842;28;20922;-59
2024/01/14 08:03:51;;;;;;;47.20;21.20;;;-3.70;99.90;;;;;;4999133;28;20534;-59
2024/01/14 08:06:24;;;;;;;47.13;20.53;;;-3.70;99.90;;;;;;5002447;28;20533;-59
2024/01/14 08:08:52;;;;;;;39.43;18.33;;;-3.60;99.90;;;;;;5000388;28;20503;-59
2024/01/14 08:11:19;;;;;;;43.73;19.93;;;-3.70;99.90;;;;;;4992092;28;20468;-59
2024/01/14 08:13:47;;;;;;;44.83;19.50;;;-3.70;99.90;;;;;;4993108;28;20216;-59
2024/01/14 08:16:13;;;;;;;48.03;20.70;;;-4.00;99.90;;;;;;4992911;28;20797;-59
2024/01/14 08:18:41;;;;;;;51.20;22.23;;;-3.50;99.90;;;;;;4991937;28;20440;-59
2024/01/14 08:21:09;;;;;;;43.10;20.03;;;-3.80;99.90;;;;;;4983996;28;20525;-59
2024/01/14 08:23:36;;;;;;;48.97;19.97;;;-3.60;99.90;;;;;;4993831;28;21024;-60
2024/01/14 08:26:05;;;;;;;44.27;19.60;;;-3.60;99.90;;;;;;4993927;28;20445;-59
2024/01/14 08:28:33;;;;;;;34.00;18.93;;;-3.40;99.90;;;;;;4990182;28;20311;-59
2024/01/14 08:31:00;;;;;;;51.50;21.27;;;-3.60;99.90;;;;;;4999582;28;20900;-59
2024/01/14 08:33:27;;;;;;;43.87;20.43;;;-3.50;99.90;;;;;;4992423;28;20929;-59
2024/01/14 08:35:55;;;;;;;50.30;20.60;;;-3.50;99.90;;;;;;4992660;28;20480;-59
2024/01/14 08:38:23;;;;;;;41.87;18.30;;;-3.60;99.90;;;;;;4992804;28;20440;-58
2024/01/14 08:40:50;;;;;;;47.40;21.63;;;-3.60;99.90;;;;;;4988576;28;20814;-58
2024/01/14 08:43:18;;;;;;;58.20;24.07;;;-3.70;99.90;;;;;;4986412;28;20468;-60
2024/01/14 08:45:45;;;;;;;52.53;22.90;;;-3.60;99.90;;;;;;4990288;28;20444;-59
2024/01/14 08:48:13;;;;;;;52.90;23.13;;;-3.30;99.90;;;;;;4991415;28;21058;-59
2024/01/14 08:50:41;;;;;;;52.40;23.93;;;-3.40;99.90;;;;;;4988896;28;20472;-59
2024/01/14 08:53:08;;;;;;;52.17;23.30;;;-3.60;99.90;;;;;;4989177;28;20548;-59
2024/01/14 08:55:35;;;;;;;45.77;21.73;;;-3.60;99.90;;;;;;4991331;28;20448;-59
2024/01/14 08:58:02;;;;;;;47.63;20.67;;;-3.60;99.90;;;;;;4991411;28;20968;-59
2024/01/14 09:00:31;;;;;;;53.03;21.77;;;-3.20;99.90;;;;;;4990887;28;20442;-59
2024/01/14 09:02:59;;;;;;;46.63;20.20;;;-3.10;99.90;;;;;;4991378;28;20447;-59
2024/01/14 09:05:26;;;;;;;58.87;24.40;;;-3.10;99.90;;;;;;4991905;28;21007;-59
2024/01/14 09:07:54;;;;;;;56.43;28.10;;;-2.90;99.90;;;;;;4991532;28;21109;-59
2024/01/14 09:10:21;;;;;;;58.27;27.53;;;-2.90;99.90;;;;;;4990563;28;20455;-59
2024/01/14 09:12:48;;;;;;;54.40;27.43;;;-2.70;99.90;;;;;;4991453;28;20464;-59
2024/01/14 09:15:15;;;;;;;50.83;21.63;;;-2.90;99.90;;;;;;4991711;28;20503;-59
2024/01/14 09:17:43;;;;;;;31.87;16.20;;;-2.70;99.90;;;;;;4995743;28;20455;-59
2024/01/14 09:20:11;;;;;;;40.53;18.47;;;-2.60;99.90;;;;;;4985787;28;20924;-59
2024/01/14 09:22:38;;;;;;;38.70;17.10;;;-2.60;99.90;;;;;;4991738;28;20461;-59
2024/01/14 09:25:06;;;;;;;37.20;15.77;;;-2.50;99.90;;;;;;4989986;28;20456;-58
2024/01/14 09:27:34;;;;;;;30.43;14.70;;;-2.40;99.90;;;;;;4990763;28;20227;-59
2024/01/14 09:30:02;;;;;;;33.97;16.77;;;-2.10;99.90;;;;;;4990159;28;20593;-59
2024/01/14 09:32:29;;;;;;;32.33;14.70;;;-2.20;99.90;;;;;;4997406;28;20740;-59
2024/01/14 09:34:57;;;;;;;26.20;13.97;;;-2.30;99.90;;;;;;4991885;28;20212;-59
2024/01/14 09:37:24;;;;;;;25.87;12.37;;;-2.50;99.90;;;;;;4991671;28;20255;-59
2024/01/14 09:39:51;;;;;;;26.67;15.17;;;-2.40;99.90;;;;;;4998517;28;20702;-60
2024/01/14 09:42:23;;;;;;;23.30;13.23;;;-2.40;99.90;;;;;;4991722;28;20487;-60
2024/01/14 09:44:57;;;;;;;28.17;13.67;;;-2.20;99.90;;;;;;4993374;28;20205;-59
2024/01/14 09:47:26;;;;;;;28.13;13.33;;;-2.10;99.90;;;;;;4994968;28;20213;-60
2024/01/14 09:49:57;;;;;;;26.97;13.33;;;-2.10;99.90;;;;;;4994588;28;20587;-59
2024/01/14 09:52:26;;;;;;;25.60;13.80;;;-1.80;99.90;;;;;;4994365;28;20224;-59
2024/01/14 09:54:53;;;;;;;29.80;14.33;;;-2.10;99.90;;;;;;4993861;28;20200;-60
2024/01/14 09:57:21;;;;;;;26.87;13.47;;;-1.90;99.90;;;;;;4994506;28;20633;-62
2024/01/14 09:59:50;;;;;;;27.47;11.97;;;-2.00;99.90;;;;;;4996091;28;20253;-61
2024/01/14 10:02:17;;;;;;;25.67;13.73;;;-2.20;99.90;;;;;;4987563;28;20279;-61
2024/01/14 10:04:44;;;;;;;24.77;13.33;;;-2.20;99.90;;;;;;4995282;28;20686;-58
2024/01/14 10:07:12;;;;;;;28.83;12.80;;;-2.00;99.90;;;;;;4995454;28;20218;-59
2024/01/14 10:09:42;;;;;;;25.43;11.77;;;-2.30;99.90;;;;;;4994509;28;20206;-60
2024/01/14 10:12:13;;;;;;;26.77;12.70;;;-2.10;99.90;;;;;;4994256;28;20276;-59
2024/01/14 10:14:40;;;;;;;25.97;12.87;;;-2.00;99.90;;;;;;4998782;28;20240;-63
2024/01/14 10:17:09;;;;;;;26.10;13.60;;;-1.80;99.90;;;;;;4995112;28;20672;-64
2024/01/14 10:19:37;;;;;;;24.07;13.43;;;-1.70;99.90;;;;;;4992839;28;20205;-63
2024/01/14 10:22:04;;;;;;;23.97;13.37;;;-1.60;99.90;;;;;;4992446;28;20221;-59
2024/01/14 10:24:33;;;;;;;26.67;14.47;;;-2.00;99.90;;;;;;4993391;28;20206;-59
2024/01/14 10:27:02;;;;;;;26.37;14.20;;;-1.60;99.90;;;;;;4992226;28;20256;-59
2024/01/14 10:29:30;;;;;;;30.97;15.23;;;-1.30;99.90;;;;;;4992449;28;20204;-59
2024/01/14 10:31:57;;;;;;;25.70;13.83;;;-1.60;99.90;;;;;;4997183;28;20283;-59
2024/01/14 10:34:25;;;;;;;29.87;14.53;;;-1.70;99.90;;;;;;4990874;28;20201;-59
2024/01/14 10:36:52;;;;;;;30.47;14.73;;;-1.40;99.90;;;;;;4992994;28;20224;-60
2024/01/14 10:39:19;;;;;;;28.93;14.27;;;-1.30;99.90;;;;;;4992008;28;20207;-60
2024/01/14 10:41:47;;;;;;;28.97;14.73;;;-1.20;99.90;;;;;;4990817;28;20217;-60
2024/01/14 10:44:16;;;;;;;32.37;16.10;;;-1.00;99.90;;;;;;4998212;28;20207;-60
2024/01/14 10:46:45;;;;;;;31.93;15.97;;;-1.10;99.90;;;;;;4994275;28;20227;-59
2024/01/14 10:49:12;;;;;;;36.50;17.17;;;-1.10;99.90;;;;;;4994395;28;20226;-59
2024/01/14 10:51:41;;;;;;;26.87;14.83;;;-1.40;99.90;;;;;;4992997;28;20224;-59
2024/01/14 10:54:17;;;;;;;28.20;15.57;;;-1.40;99.90;;;;;;4994728;28;20225;-59
2024/01/14 10:56:52;;;;;;;31.80;16.07;;;-1.60;99.90;;;;;;4993917;28;20202;-58
2024/01/14 10:59:23;;;;;;;30.38;18.67;;;-1.60;99.90;;;;;;4985066;28;20458;-59
2024/01/14 11:01:53;;;;;;;33.00;16.53;;;-1.40;99.90;;;;;;4992829;28;20241;-60
2024/01/14 11:04:22;;;;;;;35.60;17.07;;;-1.60;99.90;;;;;;5007801;28;20206;-60
2024/01/14 11:06:55;;;;;;;26.97;16.63;;;-1.40;99.90;;;;;;4996379;28;20675;-59
2024/01/14 11:09:22;;;;;;;38.17;17.23;;;-1.60;99.90;;;;;;4995731;28;20217;-60
2024/01/14 11:11:54;;;;;;;34.93;17.10;;;-1.40;99.90;;;;;;4988406;28;20218;-59
2024/01/14 11:14:28;;;;;;;35.43;18.27;;;-1.20;99.90;;;;;;4992410;28;20295;-58
2024/01/14 11:17:02;;;;;;;35.90;18.43;;;-1.20;99.90;;;;;;4997441;28;20210;-60
2024/01/14 11:19:34;;;;;;;32.90;15.83;;;-0.80;99.90;;;;;;5004027;28;20198;-59
2024/01/14 11:22:13;;;;;;;26.33;14.93;;;;;;;;;;5000109;28;20491;-63
2024/01/14 11:24:40;;;;;;;50.03;23.93;;;-1.10;99.90;;;;;;4998567;28;20211;-58
2024/01/14 11:27:11;;;;;;;33.03;20.07;;;-1.30;99.90;;;;;;4991466;28;20650;-58
2024/01/14 11:29:41;;;;;;;35.97;18.07;;;-1.00;99.90;;;;;;5000972;28;20209;-58
2024/01/14 11:32:09;;;;;;;28.73;15.97;;;-1.20;99.90;;;;;;4991608;28;20311;-58
2024/01/14 11:35:02;;;;;;;39.47;18.20;;;-1.30;99.90;;;;;;4998542;28;20202;-58
2024/01/14 11:37:45;;;;;;;38.87;17.77;;;-1.00;99.90;;;;;;5000035;28;20202;-58
2024/01/14 11:40:26;;;;;;;36.17;16.30;;;-1.00;99.90;;;;;;4973728;28;20741;-58
2024/01/14 11:43:06;;;;;;;37.27;18.03;;;-1.50;99.90;;;;;;4994344;28;20231;-58
2024/01/14 11:45:35;;;;;;;32.03;17.37;;;-1.10;99.90;;;;;;4996371;28;20209;-58
2024/01/14 11:48:04;;;;;;;37.23;17.73;;;-1.30;99.90;;;;;;4999789;28;20303;-61
2024/01/14 11:50:32;;;;;;;36.97;17.97;;;-1.20;99.90;;;;;;5000720;28;20289;-67
2024/01/14 11:53:01;;;;;;;34.17;17.20;;;-1.20;99.90;;;;;;5001199;28;20206;-68
2024/01/14 11:55:30;;;;;;;35.20;17.90;;;-1.40;99.90;;;;;;5001020;28;20335;-67
2024/01/14 11:58:11;;;;;;;30.47;16.70;;;-1.50;99.90;;;;;;5001945;28;20194;-66
2024/01/14 12:00:40;;;;;;;39.27;19.37;;;-1.40;99.90;;;;;;5006785;28;20203;-66
2024/01/14 12:03:08;;;;;;;31.93;17.57;;;-1.20;99.90;;;;;;4993922;28;20305;-67
2024/01/14 12:05:35;;;;;;;34.77;16.50;;;-1.00;99.90;;;;;;5000752;28;20201;-58
2024/01/14 12:08:03;;;;;;;25.03;14.57;;;-1.00;99.90;;;;;;5003765;28;20224;-66
2024/01/14 12:10:32;;;;;;;28.33;13.57;;;-1.00;99.90;;;;;;5001302;28;20617;-64
2024/01/14 12:13:00;;;;;;;25.83;13.73;;;-0.80;99.90;;;;;;4998278;28;20293;-69
2024/01/14 12:15:28;;;;;;;24.60;12.63;;;-0.90;99.90;;;;;;4993856;28;20203;-67
2024/01/14 12:17:57;;;;;;;25.90;12.60;;;-0.90;99.90;;;;;;4997251;28;20285;-68
2024/01/14 12:20:25;;;;;;;25.70;12.30;;;;;;;;;;4990872;28;20205;-66
2024/01/14 12:22:57;;;;;;;19.40;10.73;;;;;;;;;;4993074;28;20269;-66
2024/01/14 12:25:24;;;;;;;22.13;11.97;;;;;;;;;;4992869;28;20275;-68
2024/01/14 12:27:51;;;;;;;21.20;12.17;;;;;;;;;;4992397;28;20249;-65
2024/01/14 12:30:25;;;;;;;20.37;10.40;;;;;;;;;;4991917;28;20264;-66
2024/01/14 12:32:53;;;;;;;21.07;10.80;;;;;;;;;;4990233;28;20228;-73
2024/01/14 12:35:25;;;;;;;20.20;10.37;;;;;;;;;;4990081;28;20259;-67